createdAt,value
2023-02-11T00:00:53.243Z,41.60
2023-02-11T00:01:53.282Z,46.20
2023-02-11T00:02:53.230Z,43.00
2023-02-11T00:03:53.212Z,37.90
2023-02-11T00:04:53.213Z,42.00
2023-02-11T00:05:53.219Z,42.90
2023-02-11T00:06:53.172Z,38.80
2023-02-11T00:07:53.192Z,41.40
2023-02-11T00:08:53.173Z,39.20
2023-02-11T00:09:53.184Z,41.60
2023-02-11T00:10:53.151Z,39.10
2023-02-11T00:11:53.146Z,39.40
2023-02-11T00:12:53.135Z,37.80
2023-02-11T00:13:53.129Z,37.80
2023-02-11T00:14:53.148Z,39.10
2023-02-11T00:15:53.102Z,41.40
2023-02-11T00:16:53.182Z,39.50
2023-02-11T00:17:53.084Z,37.50
2023-02-11T00:18:53.128Z,39.50
2023-02-11T00:19:53.083Z,42.40
2023-02-11T00:20:53.058Z,41.00
2023-02-11T00:21:53.035Z,40.20
2023-02-11T00:22:53.040Z,41.60
2023-02-11T00:23:53.031Z,40.20
2023-02-11T00:24:53.016Z,40.70
2023-02-11T00:25:53.186Z,40.90
2023-02-11T00:26:52.995Z,39.60
2023-02-11T00:27:53.000Z,40.80
2023-02-11T00:28:52.977Z,40.90
2023-02-11T00:29:52.964Z,39.90
2023-02-11T00:30:53.102Z,41.40
2023-02-11T00:31:53.074Z,35.70
2023-02-11T00:32:52.944Z,40.50
2023-02-11T00:33:52.921Z,39.30
2023-02-11T00:34:52.920Z,40.70
2023-02-11T00:35:53.108Z,38.60
2023-02-11T00:36:52.916Z,40.80
2023-02-11T00:37:52.895Z,39.40
2023-02-11T00:38:52.889Z,40.80
2023-02-11T00:39:52.857Z,40.50
2023-02-11T00:40:53.056Z,39.70
2023-02-11T00:41:52.859Z,43.50
2023-02-11T00:42:52.835Z,41.70
2023-02-11T00:43:52.832Z,39.60
2023-02-11T00:44:52.822Z,40.60
2023-02-11T00:45:53.094Z,40.40
2023-02-11T00:46:52.794Z,39.40
2023-02-11T00:47:52.781Z,42.10
2023-02-11T00:48:52.775Z,41.70
2023-02-11T00:49:52.791Z,40.60
2023-02-11T00:50:52.748Z,41.30
2023-02-11T00:51:52.738Z,39.60
2023-02-11T00:52:52.730Z,39.60
2023-02-11T00:53:52.739Z,43.50
2023-02-11T00:54:52.715Z,42.50
2023-02-11T00:55:52.724Z,40.80
2023-02-11T00:56:53.724Z,41.90
2023-02-11T00:57:52.674Z,42.80
2023-02-11T00:58:52.689Z,40.40
2023-02-11T00:59:52.660Z,44.90
2023-02-11T01:00:52.659Z,40.20
2023-02-11T01:01:52.683Z,43.10
2023-02-11T01:02:52.623Z,39.80
2023-02-11T01:03:52.619Z,40.50
2023-02-11T01:04:52.632Z,43.70
2023-02-11T01:05:52.842Z,43.90
2023-02-11T01:06:52.606Z,41.30
2023-02-11T01:07:52.580Z,41.20
2023-02-11T01:08:52.565Z,42.30
2023-02-11T01:09:52.573Z,43.00
2023-02-11T01:10:52.548Z,38.30
2023-02-11T01:11:52.527Z,43.10
2023-02-11T01:12:52.545Z,42.60
2023-02-11T01:13:52.519Z,40.60
2023-02-11T01:14:52.516Z,42.20
2023-02-11T01:15:52.805Z,44.30
2023-02-11T01:16:52.492Z,39.20
2023-02-11T01:17:52.480Z,41.10
2023-02-11T01:18:52.471Z,39.10
2023-02-11T01:19:52.460Z,41.10
2023-02-11T01:20:52.475Z,41.80
2023-02-11T01:21:52.450Z,42.40
2023-02-11T01:22:52.441Z,43.40
2023-02-11T01:23:52.429Z,41.70
2023-02-11T01:24:52.421Z,39.10
2023-02-11T01:25:52.675Z,38.40
2023-02-11T01:26:52.394Z,40.80
2023-02-11T01:27:52.386Z,42.20
2023-02-11T01:28:52.388Z,40.60
2023-02-11T01:29:52.364Z,40.50
2023-02-11T01:30:52.411Z,39.90
2023-02-11T01:31:52.438Z,39.80
2023-02-11T01:32:52.354Z,38.10
2023-02-11T01:33:52.332Z,40.90
2023-02-11T01:34:52.330Z,40.40
2023-02-11T01:35:52.600Z,40.00
2023-02-11T01:36:52.308Z,39.80
2023-02-11T01:37:52.282Z,40.40
2023-02-11T01:38:52.275Z,43.10
2023-02-11T01:39:52.265Z,38.90
2023-02-11T01:40:52.272Z,38.20
2023-02-11T01:41:52.241Z,38.80
2023-02-11T01:42:52.250Z,40.00
2023-02-11T01:43:52.224Z,42.70
2023-02-11T01:44:52.230Z,38.30
2023-02-11T01:45:52.559Z,40.80
2023-02-11T01:46:52.310Z,38.40
2023-02-11T01:47:52.193Z,39.70
2023-02-11T01:48:52.193Z,38.30
2023-02-11T01:49:52.161Z,41.80
2023-02-11T01:50:52.189Z,38.80
2023-02-11T01:51:52.166Z,40.10
2023-02-11T01:52:52.150Z,41.50
2023-02-11T01:53:52.129Z,40.20
2023-02-11T01:54:52.117Z,39.00
2023-02-11T01:55:52.239Z,39.90
2023-02-11T01:56:52.116Z,41.90
2023-02-11T01:57:52.092Z,39.60
2023-02-11T01:58:52.092Z,40.70
2023-02-11T01:59:52.093Z,41.30
2023-02-11T02:00:52.056Z,41.10
2023-02-11T02:01:52.089Z,39.80
2023-02-11T02:02:52.062Z,39.90
2023-02-11T02:03:52.094Z,38.30
2023-02-11T02:04:52.091Z,39.00
2023-02-11T02:05:52.454Z,38.00
2023-02-11T02:06:52.018Z,40.70
2023-02-11T02:07:52.001Z,39.30
2023-02-11T02:08:51.993Z,39.70
2023-02-11T02:09:51.974Z,40.70
2023-02-11T02:10:51.981Z,39.20
2023-02-11T02:11:51.987Z,38.00
2023-02-11T02:12:51.978Z,37.30
2023-02-11T02:13:51.943Z,38.40
2023-02-11T02:14:51.923Z,40.70
2023-02-11T02:15:52.295Z,35.40
2023-02-11T02:16:51.907Z,37.90
2023-02-11T02:17:51.916Z,37.10
2023-02-11T02:18:51.893Z,38.50
2023-02-11T02:19:51.871Z,39.10
2023-02-11T02:20:51.854Z,41.70
2023-02-11T02:21:51.863Z,37.40
2023-02-11T02:22:51.843Z,40.50
2023-02-11T02:23:51.857Z,40.40
2023-02-11T02:24:51.817Z,37.80
2023-02-11T02:25:52.076Z,39.20
2023-02-11T02:26:51.802Z,35.60
2023-02-11T02:27:51.783Z,37.50
2023-02-11T02:28:51.803Z,37.70
2023-02-11T02:29:51.767Z,41.80
2023-02-11T02:30:51.860Z,39.80
2023-02-11T02:31:51.832Z,34.90
2023-02-11T02:32:51.762Z,36.10
2023-02-11T02:33:51.732Z,36.90
2023-02-11T02:34:51.706Z,40.20
2023-02-11T02:35:51.893Z,35.00
2023-02-11T02:36:51.699Z,40.50
2023-02-11T02:37:51.739Z,36.40
2023-02-11T02:38:51.688Z,36.70
2023-02-11T02:39:51.665Z,36.80
2023-02-11T02:40:51.653Z,35.80
2023-02-11T02:41:51.653Z,37.00
2023-02-11T02:42:51.641Z,37.30
2023-02-11T02:43:51.651Z,38.00
2023-02-11T02:44:51.633Z,40.70
2023-02-11T02:45:52.000Z,39.60
2023-02-11T02:46:51.655Z,38.70
2023-02-11T02:47:51.585Z,38.60
2023-02-11T02:48:51.593Z,42.10
2023-02-11T02:49:51.565Z,35.50
2023-02-11T02:50:51.573Z,39.10
2023-02-11T02:51:51.565Z,40.20
2023-02-11T02:52:51.569Z,40.70
2023-02-11T02:53:51.558Z,36.70
2023-02-11T02:54:51.546Z,38.00
2023-02-11T02:55:51.768Z,38.70
2023-02-11T02:56:51.531Z,36.40
2023-02-11T02:57:51.513Z,39.50
2023-02-11T02:58:51.496Z,39.80
2023-02-11T02:59:51.499Z,40.90
2023-02-11T03:00:51.508Z,37.10
2023-02-11T03:01:51.479Z,37.40
2023-02-11T03:02:51.462Z,39.00
2023-02-11T03:03:51.507Z,35.90
2023-02-11T03:04:51.447Z,39.70
2023-02-11T03:05:51.711Z,39.90
2023-02-11T03:06:51.426Z,36.40
2023-02-11T03:07:51.405Z,41.30
2023-02-11T03:08:51.399Z,40.50
2023-02-11T03:09:51.395Z,32.60
2023-02-11T03:10:51.400Z,38.70
2023-02-11T03:11:51.375Z,39.70
2023-02-11T03:12:51.361Z,38.30
2023-02-11T03:13:51.371Z,41.40
2023-02-11T03:14:51.350Z,37.90
2023-02-11T03:15:51.867Z,39.90
2023-02-11T03:16:51.339Z,38.10
2023-02-11T03:17:51.334Z,41.60
2023-02-11T03:18:51.363Z,42.30
2023-02-11T03:19:51.300Z,38.60
2023-02-11T03:20:51.289Z,39.70
2023-02-11T03:21:51.292Z,39.20
2023-02-11T03:22:51.275Z,39.20
2023-02-11T03:23:51.261Z,39.80
2023-02-11T03:24:51.242Z,39.30
2023-02-11T03:25:51.541Z,41.60
2023-02-11T03:26:51.242Z,41.20
2023-02-11T03:27:51.218Z,38.20
2023-02-11T03:28:51.197Z,39.80
2023-02-11T03:29:51.202Z,39.20
2023-02-11T03:30:51.211Z,38.80
2023-02-11T03:32:23.116Z,42.40
2023-02-11T03:32:51.204Z,39.40
2023-02-11T03:33:51.221Z,40.10
2023-02-11T03:34:51.154Z,40.20
2023-02-11T03:35:51.488Z,37.90
2023-02-11T03:36:51.152Z,39.40
2023-02-11T03:37:51.148Z,40.00
2023-02-11T03:38:51.148Z,40.70
2023-02-11T03:39:51.116Z,38.80
2023-02-11T03:40:52.121Z,36.80
2023-02-11T03:41:51.119Z,38.40
2023-02-11T03:42:51.085Z,41.60
2023-02-11T03:43:51.086Z,38.60
2023-02-11T03:44:51.092Z,37.90
2023-02-11T03:45:51.412Z,41.30
2023-02-11T03:46:51.053Z,38.60
2023-02-11T03:47:51.054Z,39.20
2023-02-11T03:48:51.061Z,40.80
2023-02-11T03:49:51.037Z,37.90
2023-02-11T03:50:51.052Z,40.10
2023-02-11T03:51:51.019Z,39.10
2023-02-11T03:52:50.980Z,39.70
2023-02-11T03:53:51.002Z,39.80
2023-02-11T03:54:50.998Z,39.90
2023-02-11T03:55:51.285Z,35.90
2023-02-11T03:56:50.946Z,37.40
2023-02-11T03:57:50.954Z,41.00
2023-02-11T03:58:50.958Z,38.30
2023-02-11T03:59:50.958Z,37.90
2023-02-11T04:00:50.948Z,36.90
2023-02-11T04:01:50.952Z,39.80
2023-02-11T04:02:50.919Z,37.50
2023-02-11T04:03:50.898Z,36.10
2023-02-11T04:04:50.876Z,39.90
2023-02-11T04:05:51.169Z,37.70
2023-02-11T04:06:50.892Z,40.00
2023-02-11T04:07:50.853Z,39.10
2023-02-11T04:08:50.842Z,41.80
2023-02-11T04:09:50.846Z,38.50
2023-02-11T04:10:50.824Z,41.20
2023-02-11T04:11:50.830Z,37.90
2023-02-11T04:12:50.838Z,38.30
2023-02-11T04:13:50.842Z,37.40
2023-02-11T04:14:50.786Z,38.60
2023-02-11T04:15:51.060Z,38.40
2023-02-11T04:16:50.767Z,41.00
2023-02-11T04:17:50.762Z,37.60
2023-02-11T04:18:50.841Z,39.10
2023-02-11T04:19:50.759Z,41.70
2023-02-11T04:20:50.754Z,39.80
2023-02-11T04:21:50.699Z,38.40
2023-02-11T04:22:50.709Z,39.50
2023-02-11T04:23:50.699Z,40.70
2023-02-11T04:24:50.701Z,40.50
2023-02-11T04:25:51.033Z,35.80
2023-02-11T04:26:50.676Z,40.60
2023-02-11T04:27:50.666Z,36.90
2023-02-11T04:28:50.686Z,41.30
2023-02-11T04:29:50.624Z,40.00
2023-02-11T04:30:50.694Z,38.90
2023-02-11T04:31:50.718Z,38.20
2023-02-11T04:32:50.599Z,40.50
2023-02-11T04:33:50.639Z,37.30
2023-02-11T04:34:50.601Z,39.10
2023-02-11T04:35:50.826Z,40.40
2023-02-11T04:36:50.568Z,37.10
2023-02-11T04:37:50.575Z,37.90
2023-02-11T04:38:50.549Z,37.70
2023-02-11T04:39:50.534Z,38.20
2023-02-11T04:40:50.523Z,39.60
2023-02-11T04:41:50.519Z,40.00
2023-02-11T04:42:51.504Z,38.10
2023-02-11T04:43:50.535Z,39.10
2023-02-11T04:44:50.513Z,41.00
2023-02-11T04:45:50.734Z,39.50
2023-02-11T04:46:50.461Z,41.10
2023-02-11T04:47:50.488Z,39.90
2023-02-11T04:48:50.459Z,38.00
2023-02-11T04:49:50.462Z,40.00
2023-02-11T04:50:50.448Z,39.70
2023-02-11T04:51:50.440Z,39.40
2023-02-11T04:52:50.432Z,40.40
2023-02-11T04:53:50.420Z,40.00
2023-02-11T04:54:50.407Z,40.60
2023-02-11T04:55:50.724Z,37.90
2023-02-11T04:56:50.387Z,39.20
2023-02-11T04:57:50.367Z,38.60
2023-02-11T04:58:50.355Z,42.10
2023-02-11T04:59:50.360Z,39.50
2023-02-11T05:00:50.405Z,43.70
2023-02-11T05:01:50.320Z,40.70
2023-02-11T05:02:50.325Z,42.50
2023-02-11T05:03:50.360Z,43.80
2023-02-11T05:04:51.291Z,37.10
2023-02-11T05:05:50.535Z,42.40
2023-02-11T05:06:50.294Z,37.90
2023-02-11T05:07:50.275Z,41.60
2023-02-11T05:08:50.295Z,40.60
2023-02-11T05:09:50.263Z,40.30
2023-02-11T05:10:50.238Z,38.10
2023-02-11T05:11:51.236Z,36.90
2023-02-11T05:12:50.216Z,41.70
2023-02-11T05:13:50.213Z,39.20
2023-02-11T05:14:50.187Z,43.00
2023-02-11T05:15:50.539Z,39.60
2023-02-11T05:16:50.217Z,38.20
2023-02-11T05:17:50.167Z,42.40
2023-02-11T05:18:52.387Z,43.80
2023-02-11T05:19:51.147Z,40.00
2023-02-11T05:20:50.127Z,40.50
2023-02-11T05:22:01.781Z,40.00
2023-02-11T05:22:52.115Z,38.70
2023-02-11T05:23:50.146Z,41.30
2023-02-11T05:24:50.142Z,41.30
2023-02-11T05:25:50.409Z,43.40
2023-02-11T05:26:50.110Z,42.70
2023-02-11T05:27:50.074Z,45.20
2023-02-11T05:28:50.059Z,43.00
2023-02-11T05:29:50.072Z,44.20
2023-02-11T05:30:50.085Z,43.60
2023-02-11T05:31:50.074Z,41.00
2023-02-11T05:32:50.097Z,43.40
2023-02-11T05:33:50.031Z,43.40
2023-02-11T05:34:50.020Z,42.90
2023-02-11T05:35:50.323Z,42.10
2023-02-11T05:36:50.005Z,46.00
2023-02-11T05:37:49.996Z,41.20
2023-02-11T05:38:49.976Z,43.90
2023-02-11T05:39:49.944Z,39.50
2023-02-11T05:40:49.941Z,41.20
2023-02-11T05:41:49.953Z,39.60
2023-02-11T05:42:49.911Z,38.50
2023-02-11T05:43:50.916Z,43.00
2023-02-11T05:44:50.780Z,39.40
2023-02-11T05:45:51.212Z,44.70
2023-02-11T05:46:49.898Z,42.00
2023-02-11T05:47:49.870Z,42.50
2023-02-11T05:48:49.883Z,38.20
2023-02-11T05:49:49.863Z,40.80
2023-02-11T05:50:49.863Z,41.60
2023-02-11T05:51:49.833Z,40.70
2023-02-11T05:52:49.827Z,38.60
2023-02-11T05:53:49.820Z,42.20
2023-02-11T05:54:49.811Z,42.30
2023-02-11T05:55:50.091Z,40.20
2023-02-11T05:56:49.776Z,39.80
2023-02-11T05:57:49.817Z,41.20
2023-02-11T05:58:49.772Z,40.90
2023-02-11T05:59:49.753Z,41.20
2023-02-11T06:00:49.778Z,41.80
2023-02-11T06:01:49.743Z,43.70
2023-02-11T06:02:49.764Z,40.60
2023-02-11T06:03:49.829Z,38.70
2023-02-11T06:04:49.718Z,41.20
2023-02-11T06:05:50.029Z,38.20
2023-02-11T06:06:54.734Z,40.30
2023-02-11T06:07:49.685Z,36.20
2023-02-11T06:08:49.690Z,39.10
2023-02-11T06:09:49.655Z,39.90
2023-02-11T06:10:49.657Z,37.40
2023-02-11T06:11:49.666Z,41.40
2023-02-11T06:12:49.638Z,40.70
2023-02-11T06:13:49.654Z,38.40
2023-02-11T06:14:49.613Z,35.00
2023-02-11T06:15:50.117Z,38.50
2023-02-11T06:16:49.630Z,40.00
2023-02-11T06:17:49.605Z,35.70
2023-02-11T06:18:49.582Z,38.10
2023-02-11T06:19:49.571Z,39.50
2023-02-11T06:20:49.609Z,37.10
2023-02-11T06:21:49.612Z,36.00
2023-02-11T06:22:49.593Z,37.60
2023-02-11T06:23:49.536Z,37.50
2023-02-11T06:25:00.736Z,37.60
2023-02-11T06:25:51.916Z,35.20
2023-02-11T06:26:49.504Z,37.20
2023-02-11T06:27:49.501Z,38.70
2023-02-11T06:28:49.498Z,34.40
2023-02-11T06:29:49.464Z,35.50
2023-02-11T06:30:49.524Z,37.10
2023-02-11T06:31:49.593Z,36.10
2023-02-11T06:32:49.560Z,39.50
2023-02-11T06:33:49.441Z,36.60
2023-02-11T06:34:49.471Z,36.30
2023-02-11T06:35:49.676Z,36.40
2023-02-11T06:36:49.411Z,39.00
2023-02-11T06:37:49.406Z,35.30
2023-02-11T06:38:49.386Z,36.90
2023-02-11T06:39:49.374Z,40.50
2023-02-11T06:40:49.395Z,37.10
2023-02-11T06:41:49.355Z,38.00
2023-02-11T06:42:49.358Z,37.10
2023-02-11T06:43:49.336Z,36.30
2023-02-11T06:44:49.324Z,35.60
2023-02-11T06:45:49.614Z,37.50
2023-02-11T06:46:49.358Z,37.20
2023-02-11T06:47:49.324Z,34.20
2023-02-11T06:48:49.276Z,33.10
2023-02-11T06:49:49.283Z,38.90
2023-02-11T06:50:50.309Z,37.00
2023-02-11T06:51:49.296Z,37.80
2023-02-11T06:52:49.261Z,35.60
2023-02-11T06:53:49.242Z,31.50
2023-02-11T06:54:49.238Z,37.50
2023-02-11T06:55:49.455Z,38.60
2023-02-11T06:56:49.209Z,39.90
2023-02-11T06:57:49.208Z,36.80
2023-02-11T06:58:49.198Z,35.60
2023-02-11T06:59:49.207Z,35.20
2023-02-11T07:00:49.157Z,36.30
2023-02-11T07:01:49.157Z,37.80
2023-02-11T07:02:49.170Z,35.10
2023-02-11T07:03:49.135Z,36.40
2023-02-11T07:04:49.144Z,37.50
2023-02-11T07:05:49.308Z,35.20
2023-02-11T07:06:49.142Z,36.00
2023-02-11T07:07:49.093Z,38.00
2023-02-11T07:08:49.105Z,36.80
2023-02-11T07:09:49.074Z,37.00
2023-02-11T07:10:49.070Z,38.70
2023-02-11T07:11:49.093Z,39.90
2023-02-11T07:12:49.057Z,37.20
2023-02-11T07:13:49.038Z,39.20
2023-02-11T07:14:49.026Z,39.30
2023-02-11T07:15:49.474Z,38.60
2023-02-11T07:16:49.084Z,39.20
2023-02-11T07:17:49.007Z,40.60
2023-02-11T07:18:49.003Z,34.30
2023-02-11T07:19:48.992Z,36.20
2023-02-11T07:20:48.972Z,40.00
2023-02-11T07:21:48.974Z,36.90
2023-02-11T07:22:48.978Z,37.50
2023-02-11T07:23:48.943Z,37.40
2023-02-11T07:24:48.956Z,38.30
2023-02-11T07:25:49.263Z,35.70
2023-02-11T07:26:48.912Z,37.40
2023-02-11T07:27:48.915Z,38.80
2023-02-11T07:28:48.896Z,37.40
2023-02-11T07:29:48.883Z,36.90
2023-02-11T07:30:48.910Z,36.30
2023-02-11T07:31:49.085Z,40.30
2023-02-11T07:32:48.886Z,39.00
2023-02-11T07:33:48.888Z,34.70
2023-02-11T07:34:48.885Z,35.90
2023-02-11T07:35:49.274Z,35.60
2023-02-11T07:36:48.811Z,36.90
2023-02-11T07:37:48.846Z,36.70
2023-02-11T07:38:48.821Z,36.00
2023-02-11T07:39:48.787Z,38.10
2023-02-11T07:40:48.806Z,35.80
2023-02-11T07:41:48.790Z,34.30
2023-02-11T07:42:48.773Z,39.70
2023-02-11T07:43:48.756Z,37.40
2023-02-11T07:44:50.538Z,33.80
2023-02-11T07:45:50.056Z,35.80
2023-02-11T07:46:48.776Z,36.50
2023-02-11T07:47:48.712Z,37.20
2023-02-11T07:48:48.739Z,37.70
2023-02-11T07:49:48.757Z,35.90
2023-02-11T07:50:48.675Z,37.00
2023-02-11T07:51:48.709Z,38.40
2023-02-11T07:52:48.719Z,37.20
2023-02-11T07:53:48.653Z,38.60
2023-02-11T07:54:49.679Z,36.50
2023-02-11T07:55:48.788Z,38.10
2023-02-11T07:56:48.626Z,37.40
2023-02-11T07:57:48.625Z,36.60
2023-02-11T07:58:48.664Z,41.20
2023-02-11T07:59:48.610Z,37.60
2023-02-11T08:00:48.615Z,38.00
2023-02-11T08:01:48.616Z,35.70
2023-02-11T08:02:48.572Z,35.30
2023-02-11T08:03:48.551Z,35.30
2023-02-11T08:04:48.557Z,38.30
2023-02-11T08:05:48.683Z,37.80
2023-02-11T08:06:48.553Z,36.80
2023-02-11T08:07:48.541Z,36.40
2023-02-11T08:08:48.511Z,37.70
2023-02-11T08:09:48.514Z,35.00
2023-02-11T08:10:48.727Z,35.40
2023-02-11T08:11:48.499Z,38.10
2023-02-11T08:12:48.494Z,36.30
2023-02-11T08:13:48.468Z,38.40
2023-02-11T08:14:48.462Z,39.20
2023-02-11T08:15:48.648Z,39.90
2023-02-11T08:16:48.505Z,36.80
2023-02-11T08:17:48.477Z,38.80
2023-02-11T08:18:48.412Z,38.40
2023-02-11T08:19:48.399Z,39.70
2023-02-11T08:20:48.604Z,40.30
2023-02-11T08:21:48.383Z,37.60
2023-02-11T08:22:48.371Z,37.60
2023-02-11T08:23:48.384Z,34.70
2023-02-11T08:24:50.147Z,36.70
2023-02-11T08:25:48.347Z,36.20
2023-02-11T08:26:48.335Z,37.40
2023-02-11T08:27:48.338Z,37.60
2023-02-11T08:28:48.324Z,35.30
2023-02-11T08:29:48.330Z,36.80
2023-02-11T08:30:48.460Z,38.70
2023-02-11T08:31:48.327Z,39.20
2023-02-11T08:32:48.267Z,37.80
2023-02-11T08:33:48.283Z,40.30
2023-02-11T08:34:48.262Z,38.80
2023-02-11T08:35:48.253Z,36.60
2023-02-11T08:36:48.232Z,40.00
2023-02-11T08:37:49.220Z,39.50
2023-02-11T08:38:48.246Z,34.80
2023-02-11T08:39:48.201Z,36.30
2023-02-11T08:40:48.272Z,37.80
2023-02-11T08:41:48.210Z,39.80
2023-02-11T08:42:48.158Z,35.70
2023-02-11T08:43:48.160Z,37.80
2023-02-11T08:44:48.155Z,39.30
2023-02-11T08:45:48.186Z,41.20
2023-02-11T08:46:49.152Z,38.80
2023-02-11T08:47:48.121Z,36.90
2023-02-11T08:48:48.112Z,37.00
2023-02-11T08:49:48.112Z,39.80
2023-02-11T08:50:48.100Z,38.20
2023-02-11T08:51:48.123Z,40.40
2023-02-11T08:52:48.092Z,42.00
2023-02-11T08:53:48.060Z,43.30
2023-02-11T08:54:48.059Z,38.60
2023-02-11T08:55:48.139Z,43.30
2023-02-11T08:56:48.052Z,39.70
2023-02-11T08:57:48.042Z,40.00
2023-02-11T08:58:48.073Z,40.00
2023-02-11T08:59:48.025Z,40.80
2023-02-11T09:00:48.055Z,41.50
2023-02-11T09:01:48.041Z,38.00
2023-02-11T09:02:47.983Z,40.80
2023-02-11T09:03:47.957Z,37.10
2023-02-11T09:04:47.997Z,42.10
2023-02-11T09:05:47.972Z,37.60
2023-02-11T09:06:47.975Z,40.50
2023-02-11T09:07:47.928Z,37.50
2023-02-11T09:08:47.917Z,39.90
2023-02-11T09:09:47.931Z,38.10
2023-02-11T09:10:47.931Z,40.10
2023-02-11T09:11:47.892Z,39.80
2023-02-11T09:12:47.874Z,41.90
2023-02-11T09:13:47.876Z,39.40
2023-02-11T09:14:47.874Z,39.60
2023-02-11T09:15:47.839Z,40.70
2023-02-11T09:16:47.860Z,38.60
2023-02-11T09:17:47.834Z,37.70
2023-02-11T09:18:47.907Z,39.70
2023-02-11T09:19:47.828Z,36.90
2023-02-11T09:20:47.806Z,40.10
2023-02-11T09:21:47.806Z,38.50
2023-02-11T09:22:47.794Z,38.70
2023-02-11T09:23:47.845Z,38.70
2023-02-11T09:24:47.773Z,44.40
2023-02-11T09:25:47.757Z,40.90
2023-02-11T09:26:47.771Z,38.60
2023-02-11T09:27:47.721Z,43.00
2023-02-11T09:28:47.756Z,40.40
2023-02-11T09:29:47.705Z,39.40
2023-02-11T09:30:47.831Z,40.80
2023-02-11T09:32:19.584Z,40.80
2023-02-11T09:32:47.662Z,39.40
2023-02-11T09:33:48.662Z,38.90
2023-02-11T09:34:47.663Z,42.90
2023-02-11T09:35:47.663Z,42.90
2023-02-11T09:36:47.655Z,65.90
2023-02-11T09:37:47.623Z,109.90
2023-02-11T09:38:47.714Z,65.80
2023-02-11T09:39:47.610Z,69.10
2023-02-11T09:40:47.589Z,57.40
2023-02-11T09:41:47.611Z,51.00
2023-02-11T09:42:47.577Z,51.90
2023-02-11T09:43:47.576Z,74.20
2023-02-11T09:44:47.572Z,79.30
2023-02-11T09:45:47.580Z,65.00
2023-02-11T09:46:47.556Z,53.10
2023-02-11T09:47:47.550Z,66.00
2023-02-11T09:48:47.536Z,40.40
2023-02-11T09:49:47.520Z,45.50
2023-02-11T09:50:47.483Z,45.10
2023-02-11T09:51:47.484Z,41.70
2023-02-11T09:52:48.264Z,45.10
2023-02-11T09:53:47.470Z,41.80
2023-02-11T09:54:47.467Z,42.00
2023-02-11T09:55:47.455Z,44.80
2023-02-11T09:56:47.451Z,46.90
2023-02-11T09:57:47.451Z,42.20
2023-02-11T09:58:47.429Z,43.00
2023-02-11T09:59:47.417Z,39.30
2023-02-11T10:00:47.429Z,42.40
2023-02-11T10:01:47.434Z,42.10
2023-02-11T10:02:47.384Z,42.40
2023-02-11T10:03:47.405Z,40.90
2023-02-11T10:04:47.359Z,44.00
2023-02-11T10:05:47.383Z,43.20
2023-02-11T10:06:47.350Z,41.50
2023-02-11T10:07:47.339Z,46.60
2023-02-11T10:08:47.323Z,43.60
2023-02-11T10:09:47.331Z,40.60
2023-02-11T10:10:47.334Z,48.90
2023-02-11T10:11:47.321Z,44.90
2023-02-11T10:12:47.332Z,57.30
2023-02-11T10:13:47.281Z,52.70
2023-02-11T10:14:47.289Z,44.30
2023-02-11T10:15:47.314Z,46.20
2023-02-11T10:16:47.257Z,47.90
2023-02-11T10:17:47.246Z,44.10
2023-02-11T10:18:47.233Z,44.40
2023-02-11T10:19:47.256Z,38.20
2023-02-11T10:20:47.267Z,45.70
2023-02-11T10:21:47.197Z,48.00
2023-02-11T10:22:47.211Z,44.70
2023-02-11T10:23:47.178Z,46.20
2023-02-11T10:24:47.195Z,44.60
2023-02-11T10:25:47.176Z,43.20
2023-02-11T10:26:47.155Z,45.70
2023-02-11T10:27:47.164Z,46.70
2023-02-11T10:28:47.140Z,44.60
2023-02-11T10:29:47.133Z,44.00
2023-02-11T10:30:47.256Z,47.60
2023-02-11T10:31:47.158Z,47.30
2023-02-11T10:32:47.100Z,48.00
2023-02-11T10:33:47.083Z,47.30
2023-02-11T10:34:47.087Z,42.70
2023-02-11T10:35:47.077Z,47.80
2023-02-11T10:36:47.080Z,50.70
2023-02-11T10:37:47.057Z,51.50
2023-02-11T10:38:47.058Z,44.70
2023-02-11T10:39:47.038Z,50.30
2023-02-11T10:40:47.039Z,51.00
2023-02-11T10:41:47.027Z,46.40
2023-02-11T10:42:47.010Z,45.40
2023-02-11T10:43:46.997Z,47.00
2023-02-11T10:44:46.995Z,42.90
2023-02-11T10:45:46.989Z,49.60
2023-02-11T10:46:47.150Z,42.80
2023-02-11T10:47:46.962Z,45.40
2023-02-11T10:48:46.943Z,46.80
2023-02-11T10:49:46.947Z,46.80
2023-02-11T10:50:46.928Z,47.50
2023-02-11T10:51:46.915Z,47.80
2023-02-11T10:52:46.892Z,44.10
2023-02-11T10:53:46.907Z,46.50
2023-02-11T10:54:46.911Z,47.80
2023-02-11T10:55:46.898Z,44.60
2023-02-11T10:56:46.899Z,45.70
2023-02-11T10:57:46.892Z,44.00
2023-02-11T10:58:46.837Z,45.80
2023-02-11T10:59:46.851Z,43.90
2023-02-11T11:00:46.813Z,45.80
2023-02-11T11:01:46.904Z,46.30
2023-02-11T11:02:46.809Z,38.50
2023-02-11T11:03:46.772Z,46.80
2023-02-11T11:04:46.823Z,45.00
2023-02-11T11:05:46.768Z,40.40
2023-02-11T11:06:46.749Z,41.10
2023-02-11T11:07:47.763Z,49.90
2023-02-11T11:08:46.742Z,46.10
2023-02-11T11:09:46.747Z,46.50
2023-02-11T11:10:46.733Z,46.50
2023-02-11T11:11:46.712Z,46.40
2023-02-11T11:12:46.704Z,39.90
2023-02-11T11:13:46.742Z,42.40
2023-02-11T11:14:46.672Z,40.80
2023-02-11T11:15:46.718Z,42.00
2023-02-11T11:16:47.680Z,40.60
2023-02-11T11:17:46.645Z,39.60
2023-02-11T11:18:46.641Z,44.50
2023-02-11T11:19:46.636Z,48.10
2023-02-11T11:20:46.610Z,39.70
2023-02-11T11:21:46.639Z,43.90
2023-02-11T11:22:46.600Z,42.50
2023-02-11T11:23:46.582Z,42.40
2023-02-11T11:24:46.631Z,43.30
2023-02-11T11:25:46.572Z,39.10
2023-02-11T11:26:46.579Z,40.40
2023-02-11T11:27:46.553Z,37.20
2023-02-11T11:28:46.550Z,35.20
2023-02-11T11:29:46.525Z,37.90
2023-02-11T11:30:46.530Z,38.40
2023-02-11T11:31:46.555Z,38.70
2023-02-11T11:32:46.490Z,39.90
2023-02-11T11:33:46.489Z,37.00
2023-02-11T11:34:46.471Z,38.00
2023-02-11T11:35:46.462Z,35.60
2023-02-11T11:36:46.460Z,37.60
2023-02-11T11:37:46.467Z,38.70
2023-02-11T11:38:46.443Z,43.90
2023-02-11T11:39:46.428Z,40.30
2023-02-11T11:40:46.411Z,40.60
2023-02-11T11:41:46.396Z,32.90
2023-02-11T11:42:46.435Z,37.90
2023-02-11T11:43:46.389Z,42.50
2023-02-11T11:44:46.368Z,40.40
2023-02-11T11:45:46.363Z,40.70
2023-02-11T11:46:46.452Z,39.00
2023-02-11T11:47:46.349Z,36.10
2023-02-11T11:48:46.366Z,38.00
2023-02-11T11:49:46.323Z,36.40
2023-02-11T11:50:46.327Z,39.90
2023-02-11T11:51:46.304Z,35.30
2023-02-11T11:52:46.295Z,38.00
2023-02-11T11:53:46.328Z,35.10
2023-02-11T11:54:46.260Z,37.10
2023-02-11T11:55:46.274Z,33.40
2023-02-11T11:56:46.241Z,35.30
2023-02-11T11:57:46.230Z,35.70
2023-02-11T11:58:46.219Z,34.60
2023-02-11T11:59:46.253Z,36.10
2023-02-11T12:00:46.201Z,38.90
2023-02-11T12:01:46.222Z,34.90
2023-02-11T12:02:46.222Z,33.80
2023-02-11T12:03:46.181Z,33.40
2023-02-11T12:04:46.196Z,28.80
2023-02-11T12:05:46.168Z,28.10
2023-02-11T12:06:46.153Z,29.50
2023-02-11T12:07:46.141Z,32.90
2023-02-11T12:08:46.219Z,34.50
2023-02-11T12:09:46.120Z,31.70
2023-02-11T12:10:46.127Z,31.60
2023-02-11T12:11:46.120Z,24.80
2023-02-11T12:12:46.964Z,30.10
2023-02-11T12:13:47.102Z,29.90
2023-02-11T12:14:46.082Z,29.70
2023-02-11T12:15:46.058Z,30.90
2023-02-11T12:16:46.073Z,36.90
2023-02-11T12:17:46.054Z,30.00
2023-02-11T12:18:47.509Z,30.60
2023-02-11T12:19:46.042Z,34.90
2023-02-11T12:20:46.004Z,31.70
2023-02-11T12:21:46.009Z,29.40
2023-02-11T12:22:45.997Z,31.00
2023-02-11T12:23:46.018Z,31.80
2023-02-11T12:24:45.963Z,32.70
2023-02-11T12:25:45.989Z,29.50
2023-02-11T12:26:45.943Z,30.80
2023-02-11T12:27:45.959Z,32.50
2023-02-11T12:28:45.945Z,32.20
2023-02-11T12:29:45.940Z,31.10
2023-02-11T12:30:46.020Z,27.50
2023-02-11T12:31:45.977Z,28.20
2023-02-11T12:32:45.901Z,30.50
2023-02-11T12:33:45.883Z,32.20
2023-02-11T12:34:45.897Z,32.10
2023-02-11T12:35:45.858Z,32.20
2023-02-11T12:36:45.851Z,31.30
2023-02-11T12:37:45.891Z,32.50
2023-02-11T12:38:45.837Z,30.70
2023-02-11T12:39:45.836Z,31.40
2023-02-11T12:40:45.818Z,31.30
2023-02-11T12:41:45.808Z,30.70
2023-02-11T12:42:45.862Z,34.10
2023-02-11T12:43:45.814Z,29.40
2023-02-11T12:44:45.775Z,30.20
2023-02-11T12:45:45.825Z,29.80
2023-02-11T12:46:45.760Z,31.30
2023-02-11T12:47:45.756Z,33.60
2023-02-11T12:48:45.751Z,29.90
2023-02-11T12:49:45.720Z,35.10
2023-02-11T12:50:45.742Z,35.30
2023-02-11T12:51:45.735Z,36.00
2023-02-11T12:52:45.700Z,31.60